sensor_id;sensor_type;location;lat;lon;timestamp;P1;durP1;ratioP1;P2;durP2;ratioP2
18580;SDS011;9420;50.876;7.012;2023-04-09T00:00:14;36.80;;;25.00;;
18580;SDS011;9420;50.876;7.012;2023-04-09T00:02:43;40.50;;;26.33;;
18580;SDS011;9420;50.876;7.012;2023-04-09T00:05:10;37.23;;;24.50;;
18580;SDS011;9420;50.876;7.012;2023-04-09T00:07:38;38.87;;;25.03;;
18580;SDS011;9420;50.876;7.012;2023-04-09T00:10:05;37.53;;;25.20;;
18580;SDS011;9420;50.876;7.012;2023-04-09T00:12:33;34.43;;;24.73;;
18580;SDS011;9420;50.876;7.012;2023-04-09T00:15:01;34.87;;;24.80;;
18580;SDS011;9420;50.876;7.012;2023-04-09T00:17:29;39.47;;;25.63;;
18580;SDS011;9420;50.876;7.012;2023-04-09T00:19:57;42.50;;;26.20;;
18580;SDS011;9420;50.876;7.012;2023-04-09T00:22:24;36.13;;;24.33;;
18580;SDS011;9420;50.876;7.012;2023-04-09T00:24:52;35.23;;;23.43;;
18580;SDS011;9420;50.876;7.012;2023-04-09T00:27:19;36.67;;;26.13;;
18580;SDS011;9420;50.876;7.012;2023-04-09T00:29:46;33.80;;;24.33;;
18580;SDS011;9420;50.876;7.012;2023-04-09T00:32:13;37.47;;;24.87;;
18580;SDS011;9420;50.876;7.012;2023-04-09T00:34:40;36.93;;;24.97;;
18580;SDS011;9420;50.876;7.012;2023-04-09T00:37:09;38.30;;;25.80;;
18580;SDS011;9420;50.876;7.012;2023-04-09T00:39:36;32.93;;;24.77;;
18580;SDS011;9420;50.876;7.012;2023-04-09T00:42:03;36.30;;;24.63;;
18580;SDS011;9420;50.876;7.012;2023-04-09T00:44:30;32.37;;;25.00;;
18580;SDS011;9420;50.876;7.012;2023-04-09T00:46:57;35.63;;;24.37;;
18580;SDS011;9420;50.876;7.012;2023-04-09T00:49:25;36.73;;;24.97;;
18580;SDS011;9420;50.876;7.012;2023-04-09T00:51:52;35.53;;;24.37;;
18580;SDS011;9420;50.876;7.012;2023-04-09T00:54:21;34.43;;;23.57;;
18580;SDS011;9420;50.876;7.012;2023-04-09T00:56:48;34.53;;;23.70;;
18580;SDS011;9420;50.876;7.012;2023-04-09T00:59:16;39.33;;;24.57;;
18580;SDS011;9420;50.876;7.012;2023-04-09T01:01:44;35.17;;;23.03;;
18580;SDS011;9420;50.876;7.012;2023-04-09T01:04:11;33.80;;;23.23;;
18580;SDS011;9420;50.876;7.012;2023-04-09T01:06:41;33.50;;;22.70;;
18580;SDS011;9420;50.876;7.012;2023-04-09T01:09:17;33.07;;;23.13;;
18580;SDS011;9420;50.876;7.012;2023-04-09T01:11:55;31.13;;;22.90;;
18580;SDS011;9420;50.876;7.012;2023-04-09T01:14:37;40.47;;;25.13;;
18580;SDS011;9420;50.876;7.012;2023-04-09T01:17:15;32.80;;;22.43;;
18580;SDS011;9420;50.876;7.012;2023-04-09T01:19:50;41.30;;;24.80;;
18580;SDS011;9420;50.876;7.012;2023-04-09T01:22:31;37.73;;;23.33;;
18580;SDS011;9420;50.876;7.012;2023-04-09T01:25:19;33.20;;;22.67;;
18580;SDS011;9420;50.876;7.012;2023-04-09T01:28:13;35.37;;;22.90;;
18580;SDS011;9420;50.876;7.012;2023-04-09T01:30:43;34.17;;;22.33;;
18580;SDS011;9420;50.876;7.012;2023-04-09T01:33:15;28.07;;;20.10;;
18580;SDS011;9420;50.876;7.012;2023-04-09T01:35:45;29.17;;;20.00;;
18580;SDS011;9420;50.876;7.012;2023-04-09T01:38:15;28.23;;;20.33;;
18580;SDS011;9420;50.876;7.012;2023-04-09T01:40:45;29.00;;;21.03;;
18580;SDS011;9420;50.876;7.012;2023-04-09T01:43:16;32.47;;;22.17;;
18580;SDS011;9420;50.876;7.012;2023-04-09T01:45:45;31.83;;;22.67;;
18580;SDS011;9420;50.876;7.012;2023-04-09T01:48:13;31.30;;;22.10;;
18580;SDS011;9420;50.876;7.012;2023-04-09T01:50:41;35.00;;;23.73;;
18580;SDS011;9420;50.876;7.012;2023-04-09T01:53:09;29.93;;;21.80;;
18580;SDS011;9420;50.876;7.012;2023-04-09T01:55:37;32.97;;;21.97;;
18580;SDS011;9420;50.876;7.012;2023-04-09T01:58:04;36.47;;;23.43;;
18580;SDS011;9420;50.876;7.012;2023-04-09T02:00:34;30.53;;;22.97;;
18580;SDS011;9420;50.876;7.012;2023-04-09T02:03:05;37.23;;;24.33;;
18580;SDS011;9420;50.876;7.012;2023-04-09T02:05:40;31.10;;;22.37;;
18580;SDS011;9420;50.876;7.012;2023-04-09T02:08:12;34.57;;;22.87;;
18580;SDS011;9420;50.876;7.012;2023-04-09T02:10:46;34.90;;;23.20;;
18580;SDS011;9420;50.876;7.012;2023-04-09T02:13:19;34.60;;;23.67;;
18580;SDS011;9420;50.876;7.012;2023-04-09T02:15:51;37.77;;;23.70;;
18580;SDS011;9420;50.876;7.012;2023-04-09T02:18:20;32.50;;;23.13;;
18580;SDS011;9420;50.876;7.012;2023-04-09T02:20:49;33.23;;;21.40;;
18580;SDS011;9420;50.876;7.012;2023-04-09T02:23:17;32.93;;;23.03;;
18580;SDS011;9420;50.876;7.012;2023-04-09T02:25:44;30.70;;;23.17;;
18580;SDS011;9420;50.876;7.012;2023-04-09T02:28:11;33.93;;;23.30;;
18580;SDS011;9420;50.876;7.012;2023-04-09T02:30:38;31.73;;;22.37;;
18580;SDS011;9420;50.876;7.012;2023-04-09T02:33:07;35.07;;;22.20;;
18580;SDS011;9420;50.876;7.012;2023-04-09T02:35:34;30.57;;;20.53;;
18580;SDS011;9420;50.876;7.012;2023-04-09T02:38:01;34.53;;;22.33;;
18580;SDS011;9420;50.876;7.012;2023-04-09T02:40:28;33.87;;;22.13;;
18580;SDS011;9420;50.876;7.012;2023-04-09T02:42:55;30.17;;;19.97;;
18580;SDS011;9420;50.876;7.012;2023-04-09T02:45:23;25.03;;;18.27;;
18580;SDS011;9420;50.876;7.012;2023-04-09T02:47:50;25.50;;;18.30;;
18580;SDS011;9420;50.876;7.012;2023-04-09T02:50:19;31.50;;;21.23;;
18580;SDS011;9420;50.876;7.012;2023-04-09T02:52:46;28.37;;;20.10;;
18580;SDS011;9420;50.876;7.012;2023-04-09T02:55:14;34.67;;;21.87;;
18580;SDS011;9420;50.876;7.012;2023-04-09T02:57:41;32.33;;;21.87;;
18580;SDS011;9420;50.876;7.012;2023-04-09T03:00:09;38.37;;;21.60;;
18580;SDS011;9420;50.876;7.012;2023-04-09T03:02:37;30.17;;;19.83;;
18580;SDS011;9420;50.876;7.012;2023-04-09T03:05:05;27.73;;;20.73;;
18580;SDS011;9420;50.876;7.012;2023-04-09T03:07:34;30.43;;;20.47;;
18580;SDS011;9420;50.876;7.012;2023-04-09T03:10:01;31.70;;;20.83;;
18580;SDS011;9420;50.876;7.012;2023-04-09T03:12:28;33.70;;;20.87;;
18580;SDS011;9420;50.876;7.012;2023-04-09T03:14:55;26.80;;;18.43;;
18580;SDS011;9420;50.876;7.012;2023-04-09T03:17:22;35.30;;;21.97;;
18580;SDS011;9420;50.876;7.012;2023-04-09T03:19:51;30.40;;;20.27;;
18580;SDS011;9420;50.876;7.012;2023-04-09T03:22:18;31.30;;;20.70;;
18580;SDS011;9420;50.876;7.012;2023-04-09T03:24:46;30.60;;;19.37;;
18580;SDS011;9420;50.876;7.012;2023-04-09T03:27:14;31.43;;;22.83;;
18580;SDS011;9420;50.876;7.012;2023-04-09T03:29:41;29.53;;;20.23;;
18580;SDS011;9420;50.876;7.012;2023-04-09T03:32:07;29.03;;;19.83;;
18580;SDS011;9420;50.876;7.012;2023-04-09T03:34:34;33.00;;;21.83;;
18580;SDS011;9420;50.876;7.012;2023-04-09T03:37:01;32.43;;;21.37;;
18580;SDS011;9420;50.876;7.012;2023-04-09T03:39:29;33.23;;;22.27;;
18580;SDS011;9420;50.876;7.012;2023-04-09T03:41:57;30.83;;;21.17;;
18580;SDS011;9420;50.876;7.012;2023-04-09T03:44:25;30.20;;;19.53;;
18580;SDS011;9420;50.876;7.012;2023-04-09T03:46:53;28.97;;;19.67;;
18580;SDS011;9420;50.876;7.012;2023-04-09T03:49:20;23.90;;;18.37;;
18580;SDS011;9420;50.876;7.012;2023-04-09T03:51:48;29.10;;;19.03;;
18580;SDS011;9420;50.876;7.012;2023-04-09T03:54:15;30.07;;;19.50;;
18580;SDS011;9420;50.876;7.012;2023-04-09T03:56:42;26.67;;;19.00;;
18580;SDS011;9420;50.876;7.012;2023-04-09T03:59:10;28.57;;;19.50;;
18580;SDS011;9420;50.876;7.012;2023-04-09T04:01:37;28.00;;;18.43;;
18580;SDS011;9420;50.876;7.012;2023-04-09T04:04:04;26.93;;;18.80;;
18580;SDS011;9420;50.876;7.012;2023-04-09T04:06:32;25.43;;;17.50;;
18580;SDS011;9420;50.876;7.012;2023-04-09T04:08:59;30.67;;;19.00;;
18580;SDS011;9420;50.876;7.012;2023-04-09T04:11:26;29.60;;;19.47;;
18580;SDS011;9420;50.876;7.012;2023-04-09T04:13:54;28.17;;;18.90;;
18580;SDS011;9420;50.876;7.012;2023-04-09T04:16:23;28.27;;;19.37;;
18580;SDS011;9420;50.876;7.012;2023-04-09T04:18:51;31.90;;;19.63;;
18580;SDS011;9420;50.876;7.012;2023-04-09T04:21:17;30.20;;;19.13;;
18580;SDS011;9420;50.876;7.012;2023-04-09T04:23:45;28.80;;;19.20;;
18580;SDS011;9420;50.876;7.012;2023-04-09T04:26:12;30.30;;;19.70;;
18580;SDS011;9420;50.876;7.012;2023-04-09T04:28:39;29.77;;;18.83;;
18580;SDS011;9420;50.876;7.012;2023-04-09T04:31:06;29.40;;;19.77;;
18580;SDS011;9420;50.876;7.012;2023-04-09T04:33:36;27.83;;;17.03;;
18580;SDS011;9420;50.876;7.012;2023-04-09T04:36:05;28.87;;;18.30;;
18580;SDS011;9420;50.876;7.012;2023-04-09T04:38:35;31.87;;;19.67;;
18580;SDS011;9420;50.876;7.012;2023-04-09T04:41:03;29.47;;;19.83;;
18580;SDS011;9420;50.876;7.012;2023-04-09T04:43:30;28.77;;;18.97;;
18580;SDS011;9420;50.876;7.012;2023-04-09T04:45:57;27.80;;;18.40;;
18580;SDS011;9420;50.876;7.012;2023-04-09T04:48:25;29.10;;;17.53;;
18580;SDS011;9420;50.876;7.012;2023-04-09T04:50:56;25.27;;;17.23;;
18580;SDS011;9420;50.876;7.012;2023-04-09T04:53:25;27.57;;;18.40;;
18580;SDS011;9420;50.876;7.012;2023-04-09T04:55:52;26.83;;;17.57;;
18580;SDS011;9420;50.876;7.012;2023-04-09T04:58:19;24.07;;;16.80;;
18580;SDS011;9420;50.876;7.012;2023-04-09T05:00:46;28.33;;;17.20;;
18580;SDS011;9420;50.876;7.012;2023-04-09T05:03:14;28.77;;;17.50;;
18580;SDS011;9420;50.876;7.012;2023-04-09T05:05:42;27.43;;;18.13;;
18580;SDS011;9420;50.876;7.012;2023-04-09T05:08:11;27.10;;;17.53;;
18580;SDS011;9420;50.876;7.012;2023-04-09T05:10:39;24.00;;;17.33;;
18580;SDS011;9420;50.876;7.012;2023-04-09T05:13:07;25.97;;;17.67;;
18580;SDS011;9420;50.876;7.012;2023-04-09T05:15:36;25.23;;;17.20;;
18580;SDS011;9420;50.876;7.012;2023-04-09T05:18:04;26.20;;;17.70;;
18580;SDS011;9420;50.876;7.012;2023-04-09T05:20:33;26.17;;;17.90;;
18580;SDS011;9420;50.876;7.012;2023-04-09T05:23:01;27.33;;;16.57;;
18580;SDS011;9420;50.876;7.012;2023-04-09T05:25:29;24.30;;;15.93;;
18580;SDS011;9420;50.876;7.012;2023-04-09T05:27:56;22.60;;;14.70;;
18580;SDS011;9420;50.876;7.012;2023-04-09T05:30:23;25.80;;;15.90;;
18580;SDS011;9420;50.876;7.012;2023-04-09T05:32:50;22.63;;;15.13;;
18580;SDS011;9420;50.876;7.012;2023-04-09T05:35:17;23.73;;;14.57;;
18580;SDS011;9420;50.876;7.012;2023-04-09T05:37:44;19.93;;;14.53;;
18580;SDS011;9420;50.876;7.012;2023-04-09T05:40:12;22.10;;;14.40;;
18580;SDS011;9420;50.876;7.012;2023-04-09T05:42:41;22.63;;;15.40;;
18580;SDS011;9420;50.876;7.012;2023-04-09T05:45:08;23.60;;;14.50;;
18580;SDS011;9420;50.876;7.012;2023-04-09T05:47:36;23.80;;;13.87;;
18580;SDS011;9420;50.876;7.012;2023-04-09T05:50:03;22.13;;;14.10;;
18580;SDS011;9420;50.876;7.012;2023-04-09T05:52:31;22.53;;;13.67;;
18580;SDS011;9420;50.876;7.012;2023-04-09T05:54:58;23.80;;;14.90;;
18580;SDS011;9420;50.876;7.012;2023-04-09T05:57:25;23.00;;;14.67;;
18580;SDS011;9420;50.876;7.012;2023-04-09T05:59:55;22.33;;;14.50;;
18580;SDS011;9420;50.876;7.012;2023-04-09T06:02:23;23.03;;;13.47;;
18580;SDS011;9420;50.876;7.012;2023-04-09T06:04:50;25.30;;;13.67;;
18580;SDS011;9420;50.876;7.012;2023-04-09T06:07:17;22.17;;;13.43;;
18580;SDS011;9420;50.876;7.012;2023-04-09T06:09:45;19.90;;;13.80;;
18580;SDS011;9420;50.876;7.012;2023-04-09T06:12:12;22.87;;;14.13;;
18580;SDS011;9420;50.876;7.012;2023-04-09T06:14:39;19.43;;;13.07;;
18580;SDS011;9420;50.876;7.012;2023-04-09T06:17:07;19.83;;;14.20;;
18580;SDS011;9420;50.876;7.012;2023-04-09T06:19:34;20.50;;;12.97;;
18580;SDS011;9420;50.876;7.012;2023-04-09T06:22:01;21.90;;;13.67;;
18580;SDS011;9420;50.876;7.012;2023-04-09T06:24:29;19.37;;;13.33;;
18580;SDS011;9420;50.876;7.012;2023-04-09T06:26:57;21.63;;;12.53;;
18580;SDS011;9420;50.876;7.012;2023-04-09T06:29:24;19.50;;;12.67;;
18580;SDS011;9420;50.876;7.012;2023-04-09T06:31:51;21.17;;;12.70;;
18580;SDS011;9420;50.876;7.012;2023-04-09T06:34:19;18.50;;;12.10;;
18580;SDS011;9420;50.876;7.012;2023-04-09T06:36:46;17.20;;;12.10;;
18580;SDS011;9420;50.876;7.012;2023-04-09T06:39:13;19.10;;;12.60;;
18580;SDS011;9420;50.876;7.012;2023-04-09T06:41:40;17.03;;;12.00;;
18580;SDS011;9420;50.876;7.012;2023-04-09T06:44:07;19.90;;;12.17;;
18580;SDS011;9420;50.876;7.012;2023-04-09T06:46:35;21.53;;;12.57;;
18580;SDS011;9420;50.876;7.012;2023-04-09T06:49:02;18.23;;;12.57;;
18580;SDS011;9420;50.876;7.012;2023-04-09T06:51:30;18.40;;;11.43;;
18580;SDS011;9420;50.876;7.012;2023-04-09T06:53:57;18.47;;;11.03;;
18580;SDS011;9420;50.876;7.012;2023-04-09T06:56:24;20.70;;;13.67;;
18580;SDS011;9420;50.876;7.012;2023-04-09T06:58:51;17.00;;;12.07;;
18580;SDS011;9420;50.876;7.012;2023-04-09T07:01:18;21.90;;;12.27;;
18580;SDS011;9420;50.876;7.012;2023-04-09T07:03:46;16.27;;;10.87;;
18580;SDS011;9420;50.876;7.012;2023-04-09T07:06:13;17.87;;;11.33;;
18580;SDS011;9420;50.876;7.012;2023-04-09T07:08:41;13.90;;;10.67;;
18580;SDS011;9420;50.876;7.012;2023-04-09T07:11:08;16.53;;;10.17;;
18580;SDS011;9420;50.876;7.012;2023-04-09T07:13:35;15.80;;;10.03;;
18580;SDS011;9420;50.876;7.012;2023-04-09T07:16:02;15.00;;;10.33;;
18580;SDS011;9420;50.876;7.012;2023-04-09T07:18:30;16.73;;;10.67;;
18580;SDS011;9420;50.876;7.012;2023-04-09T07:20:57;15.60;;;9.83;;
18580;SDS011;9420;50.876;7.012;2023-04-09T07:23:24;16.87;;;11.37;;
18580;SDS011;9420;50.876;7.012;2023-04-09T07:25:52;18.30;;;11.20;;
18580;SDS011;9420;50.876;7.012;2023-04-09T07:28:19;16.03;;;10.57;;
18580;SDS011;9420;50.876;7.012;2023-04-09T07:30:46;16.47;;;11.23;;
18580;SDS011;9420;50.876;7.012;2023-04-09T07:33:13;16.50;;;10.97;;
18580;SDS011;9420;50.876;7.012;2023-04-09T07:35:40;13.93;;;9.90;;
18580;SDS011;9420;50.876;7.012;2023-04-09T07:38:07;14.77;;;9.63;;
18580;SDS011;9420;50.876;7.012;2023-04-09T07:40:34;12.77;;;8.63;;
18580;SDS011;9420;50.876;7.012;2023-04-09T07:43:03;13.70;;;10.07;;
18580;SDS011;9420;50.876;7.012;2023-04-09T07:45:31;14.10;;;8.80;;
18580;SDS011;9420;50.876;7.012;2023-04-09T07:47:58;13.03;;;9.13;;
18580;SDS011;9420;50.876;7.012;2023-04-09T07:50:25;12.07;;;9.07;;
18580;SDS011;9420;50.876;7.012;2023-04-09T07:52:52;13.40;;;9.60;;
18580;SDS011;9420;50.876;7.012;2023-04-09T07:55:19;12.33;;;8.80;;
18580;SDS011;9420;50.876;7.012;2023-04-09T07:57:46;13.13;;;9.10;;
18580;SDS011;9420;50.876;7.012;2023-04-09T08:00:17;14.17;;;8.33;;
18580;SDS011;9420;50.876;7.012;2023-04-09T08:02:44;12.63;;;8.87;;
18580;SDS011;9420;50.876;7.012;2023-04-09T08:05:11;14.80;;;8.97;;
18580;SDS011;9420;50.876;7.012;2023-04-09T08:07:38;14.07;;;9.20;;
18580;SDS011;9420;50.876;7.012;2023-04-09T08:10:08;11.30;;;8.13;;
18580;SDS011;9420;50.876;7.012;2023-04-09T08:12:39;13.03;;;9.27;;
18580;SDS011;9420;50.876;7.012;2023-04-09T08:15:06;14.40;;;8.93;;
18580;SDS011;9420;50.876;7.012;2023-04-09T08:17:35;11.20;;;8.47;;
18580;SDS011;9420;50.876;7.012;2023-04-09T08:20:02;13.40;;;8.93;;
18580;SDS011;9420;50.876;7.012;2023-04-09T08:22:30;12.20;;;8.43;;
18580;SDS011;9420;50.876;7.012;2023-04-09T08:24:58;12.30;;;8.07;;
18580;SDS011;9420;50.876;7.012;2023-04-09T08:27:25;13.77;;;9.00;;
18580;SDS011;9420;50.876;7.012;2023-04-09T08:29:52;10.43;;;7.73;;
18580;SDS011;9420;50.876;7.012;2023-04-09T08:32:19;12.17;;;8.33;;
18580;SDS011;9420;50.876;7.012;2023-04-09T08:34:48;12.40;;;8.87;;
18580;SDS011;9420;50.876;7.012;2023-04-09T08:37:15;12.93;;;8.20;;
18580;SDS011;9420;50.876;7.012;2023-04-09T08:39:42;13.87;;;9.03;;
18580;SDS011;9420;50.876;7.012;2023-04-09T08:42:12;17.00;;;8.67;;
18580;SDS011;9420;50.876;7.012;2023-04-09T08:44:41;9.63;;;7.77;;
18580;SDS011;9420;50.876;7.012;2023-04-09T08:47:09;14.23;;;9.33;;
18580;SDS011;9420;50.876;7.012;2023-04-09T08:49:37;13.70;;;9.57;;
18580;SDS011;9420;50.876;7.012;2023-04-09T08:52:07;13.93;;;9.07;;
18580;SDS011;9420;50.876;7.012;2023-04-09T08:54:34;13.77;;;10.20;;
18580;SDS011;9420;50.876;7.012;2023-04-09T08:57:03;11.00;;;8.33;;
18580;SDS011;9420;50.876;7.012;2023-04-09T08:59:31;14.33;;;9.07;;
18580;SDS011;9420;50.876;7.012;2023-04-09T09:02:07;16.53;;;9.67;;
18580;SDS011;9420;50.876;7.012;2023-04-09T09:04:44;14.60;;;9.87;;
18580;SDS011;9420;50.876;7.012;2023-04-09T09:07:14;17.93;;;9.80;;
18580;SDS011;9420;50.876;7.012;2023-04-09T09:09:51;11.53;;;7.63;;
18580;SDS011;9420;50.876;7.012;2023-04-09T09:12:36;9.10;;;6.50;;
18580;SDS011;9420;50.876;7.012;2023-04-09T09:15:05;10.33;;;6.50;;
18580;SDS011;9420;50.876;7.012;2023-04-09T09:17:52;9.47;;;6.43;;
18580;SDS011;9420;50.876;7.012;2023-04-09T09:20:21;12.60;;;6.83;;
18580;SDS011;9420;50.876;7.012;2023-04-09T09:22:50;9.27;;;6.27;;
18580;SDS011;9420;50.876;7.012;2023-04-09T09:25:19;8.93;;;6.87;;
18580;SDS011;9420;50.876;7.012;2023-04-09T09:27:47;10.03;;;6.90;;
18580;SDS011;9420;50.876;7.012;2023-04-09T09:30:19;9.37;;;6.80;;
18580;SDS011;9420;50.876;7.012;2023-04-09T09:32:50;10.73;;;7.57;;
18580;SDS011;9420;50.876;7.012;2023-04-09T09:35:18;10.73;;;6.97;;
18580;SDS011;9420;50.876;7.012;2023-04-09T09:37:46;10.73;;;7.50;;
18580;SDS011;9420;50.876;7.012;2023-04-09T09:40:26;11.53;;;7.50;;
18580;SDS011;9420;50.876;7.012;2023-04-09T09:42:54;11.43;;;7.93;;
18580;SDS011;9420;50.876;7.012;2023-04-09T09:45:22;10.73;;;7.60;;
18580;SDS011;9420;50.876;7.012;2023-04-09T09:47:50;8.20;;;6.53;;
18580;SDS011;9420;50.876;7.012;2023-04-09T09:50:19;10.50;;;7.67;;
18580;SDS011;9420;50.876;7.012;2023-04-09T09:52:49;9.37;;;6.73;;
18580;SDS011;9420;50.876;7.012;2023-04-09T09:55:23;10.43;;;7.43;;
18580;SDS011;9420;50.876;7.012;2023-04-09T09:57:56;10.37;;;7.00;;
18580;SDS011;9420;50.876;7.012;2023-04-09T10:00:27;9.03;;;6.33;;
18580;SDS011;9420;50.876;7.012;2023-04-09T10:02:58;10.03;;;6.60;;
18580;SDS011;9420;50.876;7.012;2023-04-09T10:05:37;7.57;;;5.87;;
18580;SDS011;9420;50.876;7.012;2023-04-09T10:08:06;9.60;;;6.77;;
18580;SDS011;9420;50.876;7.012;2023-04-09T10:10:36;10.87;;;7.10;;
18580;SDS011;9420;50.876;7.012;2023-04-09T10:13:07;10.33;;;7.17;;
18580;SDS011;9420;50.876;7.012;2023-04-09T10:15:40;10.03;;;7.63;;
18580;SDS011;9420;50.876;7.012;2023-04-09T10:18:10;10.20;;;7.30;;
18580;SDS011;9420;50.876;7.012;2023-04-09T10:20:38;9.70;;;7.43;;
18580;SDS011;9420;50.876;7.012;2023-04-09T10:23:18;10.20;;;7.03;;
18580;SDS011;9420;50.876;7.012;2023-04-09T10:25:59;9.50;;;7.33;;
18580;SDS011;9420;50.876;7.012;2023-04-09T10:28:26;12.80;;;7.07;;
18580;SDS011;9420;50.876;7.012;2023-04-09T10:30:53;10.77;;;8.13;;
18580;SDS011;9420;50.876;7.012;2023-04-09T10:33:21;10.07;;;8.07;;
18580;SDS011;9420;50.876;7.012;2023-04-09T10:35:52;8.47;;;6.53;;
18580;SDS011;9420;50.876;7.012;2023-04-09T10:38:32;10.57;;;7.43;;
18580;SDS011;9420;50.876;7.012;2023-04-09T10:41:13;9.67;;;7.70;;
18580;SDS011;9420;50.876;7.012;2023-04-09T10:43:47;12.20;;;7.30;;
18580;SDS011;9420;50.876;7.012;2023-04-09T10:46:25;8.40;;;7.20;;
18580;SDS011;9420;50.876;7.012;2023-04-09T10:49:08;8.57;;;7.23;;
18580;SDS011;9420;50.876;7.012;2023-04-09T10:51:37;9.17;;;6.63;;
18580;SDS011;9420;50.876;7.012;2023-04-09T10:54:06;7.83;;;6.50;;
18580;SDS011;9420;50.876;7.012;2023-04-09T10:57:21;9.53;;;7.20;;
18580;SDS011;9420;50.876;7.012;2023-04-09T10:59:51;7.90;;;6.67;;
18580;SDS011;9420;50.876;7.012;2023-04-09T11:05:35;7.37;;;6.13;;
18580;SDS011;9420;50.876;7.012;2023-04-09T11:08:04;11.30;;;7.37;;
18580;SDS011;9420;50.876;7.012;2023-04-09T11:10:35;10.00;;;7.00;;
18580;SDS011;9420;50.876;7.012;2023-04-09T11:13:04;10.03;;;6.47;;
18580;SDS011;9420;50.876;7.012;2023-04-09T11:15:33;8.50;;;6.63;;
18580;SDS011;9420;50.876;7.012;2023-04-09T11:18:01;9.40;;;7.27;;
18580;SDS011;9420;50.876;7.012;2023-04-09T11:20:31;7.70;;;6.63;;
18580;SDS011;9420;50.876;7.012;2023-04-09T11:22:59;7.23;;;6.33;;
18580;SDS011;9420;50.876;7.012;2023-04-09T11:25:28;8.43;;;6.60;;
18580;SDS011;9420;50.876;7.012;2023-04-09T11:27:57;7.90;;;5.73;;
18580;SDS011;9420;50.876;7.012;2023-04-09T11:30:26;9.30;;;7.47;;
18580;SDS011;9420;50.876;7.012;2023-04-09T11:32:55;8.23;;;6.57;;
18580;SDS011;9420;50.876;7.012;2023-04-09T11:35:22;8.10;;;6.67;;
18580;SDS011;9420;50.876;7.012;2023-04-09T11:37:49;7.30;;;6.47;;
18580;SDS011;9420;50.876;7.012;2023-04-09T11:40:18;7.83;;;5.83;;
18580;SDS011;9420;50.876;7.012;2023-04-09T11:42:48;8.70;;;6.30;;
18580;SDS011;9420;50.876;7.012;2023-04-09T11:45:17;8.90;;;6.23;;
18580;SDS011;9420;50.876;7.012;2023-04-09T11:47:47;9.48;;;6.55;;
18580;SDS011;9420;50.876;7.012;2023-04-09T11:50:14;7.53;;;5.97;;
18580;SDS011;9420;50.876;7.012;2023-04-09T11:52:43;7.75;;;6.03;;
18580;SDS011;9420;50.876;7.012;2023-04-09T11:55:12;6.97;;;5.50;;
18580;SDS011;9420;50.876;7.012;2023-04-09T11:57:50;7.97;;;6.38;;
18580;SDS011;9420;50.876;7.012;2023-04-09T12:00:19;6.30;;;5.38;;
18580;SDS011;9420;50.876;7.012;2023-04-09T12:02:50;7.03;;;6.07;;
18580;SDS011;9420;50.876;7.012;2023-04-09T12:05:27;6.77;;;5.57;;
18580;SDS011;9420;50.876;7.012;2023-04-09T12:07:57;10.57;;;5.23;;
18580;SDS011;9420;50.876;7.012;2023-04-09T12:10:26;7.20;;;5.43;;
18580;SDS011;9420;50.876;7.012;2023-04-09T12:12:59;7.50;;;6.70;;
18580;SDS011;9420;50.876;7.012;2023-04-09T12:15:30;8.40;;;6.33;;
18580;SDS011;9420;50.876;7.012;2023-04-09T12:18:00;5.90;;;5.20;;
18580;SDS011;9420;50.876;7.012;2023-04-09T12:20:28;6.87;;;5.20;;
18580;SDS011;9420;50.876;7.012;2023-04-09T12:22:58;5.77;;;5.10;;
18580;SDS011;9420;50.876;7.012;2023-04-09T12:25:28;6.20;;;5.00;;
18580;SDS011;9420;50.876;7.012;2023-04-09T12:27:56;7.33;;;5.13;;
18580;SDS011;9420;50.876;7.012;2023-04-09T12:30:24;6.33;;;5.43;;
18580;SDS011;9420;50.876;7.012;2023-04-09T12:32:52;6.00;;;4.93;;
18580;SDS011;9420;50.876;7.012;2023-04-09T12:35:21;5.33;;;4.80;;
18580;SDS011;9420;50.876;7.012;2023-04-09T12:37:48;6.50;;;5.00;;
18580;SDS011;9420;50.876;7.012;2023-04-09T12:40:16;6.87;;;4.87;;
18580;SDS011;9420;50.876;7.012;2023-04-09T12:42:45;7.70;;;4.77;;
18580;SDS011;9420;50.876;7.012;2023-04-09T12:45:13;6.87;;;5.70;;
18580;SDS011;9420;50.876;7.012;2023-04-09T12:47:43;8.17;;;5.33;;
18580;SDS011;9420;50.876;7.012;2023-04-09T12:50:11;8.27;;;5.23;;
18580;SDS011;9420;50.876;7.012;2023-04-09T12:52:41;7.00;;;5.40;;
18580;SDS011;9420;50.876;7.012;2023-04-09T12:55:09;8.37;;;5.37;;
18580;SDS011;9420;50.876;7.012;2023-04-09T12:57:37;7.63;;;5.80;;
18580;SDS011;9420;50.876;7.012;2023-04-09T13:00:07;7.37;;;5.37;;
18580;SDS011;9420;50.876;7.012;2023-04-09T13:02:35;7.63;;;6.00;;
18580;SDS011;9420;50.876;7.012;2023-04-09T13:05:03;7.47;;;5.27;;
18580;SDS011;9420;50.876;7.012;2023-04-09T13:07:30;5.67;;;4.67;;
18580;SDS011;9420;50.876;7.012;2023-04-09T13:09:58;6.17;;;5.00;;
18580;SDS011;9420;50.876;7.012;2023-04-09T13:12:26;5.13;;;4.63;;
18580;SDS011;9420;50.876;7.012;2023-04-09T13:14:53;9.13;;;5.57;;
18580;SDS011;9420;50.876;7.012;2023-04-09T13:17:20;6.13;;;4.80;;
18580;SDS011;9420;50.876;7.012;2023-04-09T13:19:48;9.00;;;5.63;;
18580;SDS011;9420;50.876;7.012;2023-04-09T13:22:16;5.17;;;3.97;;
18580;SDS011;9420;50.876;7.012;2023-04-09T13:24:43;5.80;;;4.33;;
18580;SDS011;9420;50.876;7.012;2023-04-09T13:27:12;6.10;;;4.97;;
18580;SDS011;9420;50.876;7.012;2023-04-09T13:29:40;4.97;;;4.47;;
18580;SDS011;9420;50.876;7.012;2023-04-09T13:32:07;5.30;;;4.73;;
18580;SDS011;9420;50.876;7.012;2023-04-09T13:34:35;7.17;;;5.03;;
18580;SDS011;9420;50.876;7.012;2023-04-09T13:37:03;6.30;;;5.27;;
18580;SDS011;9420;50.876;7.012;2023-04-09T13:39:30;5.13;;;4.13;;
18580;SDS011;9420;50.876;7.012;2023-04-09T13:41:57;6.97;;;4.87;;
18580;SDS011;9420;50.876;7.012;2023-04-09T13:44:27;4.93;;;4.30;;
18580;SDS011;9420;50.876;7.012;2023-04-09T13:46:54;5.80;;;4.83;;
18580;SDS011;9420;50.876;7.012;2023-04-09T13:49:21;5.67;;;4.43;;
18580;SDS011;9420;50.876;7.012;2023-04-09T13:51:48;5.87;;;4.90;;
18580;SDS011;9420;50.876;7.012;2023-04-09T13:54:15;4.90;;;4.20;;
18580;SDS011;9420;50.876;7.012;2023-04-09T13:56:42;5.87;;;5.20;;
18580;SDS011;9420;50.876;7.012;2023-04-09T13:59:10;5.47;;;4.30;;
18580;SDS011;9420;50.876;7.012;2023-04-09T14:01:39;5.73;;;4.47;;
18580;SDS011;9420;50.876;7.012;2023-04-09T14:04:06;6.13;;;4.20;;
18580;SDS011;9420;50.876;7.012;2023-04-09T14:06:33;6.97;;;4.70;;
18580;SDS011;9420;50.876;7.012;2023-04-09T14:09:00;5.93;;;4.47;;
18580;SDS011;9420;50.876;7.012;2023-04-09T14:11:28;5.07;;;3.93;;
18580;SDS011;9420;50.876;7.012;2023-04-09T14:13:55;6.07;;;4.60;;
18580;SDS011;9420;50.876;7.012;2023-04-09T14:16:22;6.00;;;4.83;;
18580;SDS011;9420;50.876;7.012;2023-04-09T14:18:51;4.73;;;4.10;;
18580;SDS011;9420;50.876;7.012;2023-04-09T14:21:18;6.17;;;4.47;;
18580;SDS011;9420;50.876;7.012;2023-04-09T14:23:46;4.70;;;4.20;;
18580;SDS011;9420;50.876;7.012;2023-04-09T14:26:13;6.30;;;4.67;;
18580;SDS011;9420;50.876;7.012;2023-04-09T14:28:41;5.63;;;4.73;;
18580;SDS011;9420;50.876;7.012;2023-04-09T14:31:08;4.33;;;3.90;;
18580;SDS011;9420;50.876;7.012;2023-04-09T14:33:36;5.47;;;4.17;;
18580;SDS011;9420;50.876;7.012;2023-04-09T14:36:05;5.60;;;5.10;;
18580;SDS011;9420;50.876;7.012;2023-04-09T14:38:33;5.83;;;5.07;;
18580;SDS011;9420;50.876;7.012;2023-04-09T14:41:00;5.53;;;5.03;;
18580;SDS011;9420;50.876;7.012;2023-04-09T14:43:27;6.10;;;5.10;;
18580;SDS011;9420;50.876;7.012;2023-04-09T14:45:54;5.20;;;4.17;;
18580;SDS011;9420;50.876;7.012;2023-04-09T14:48:21;7.60;;;4.93;;
18580;SDS011;9420;50.876;7.012;2023-04-09T14:50:48;4.87;;;4.47;;
18580;SDS011;9420;50.876;7.012;2023-04-09T14:53:17;5.13;;;4.47;;
18580;SDS011;9420;50.876;7.012;2023-04-09T14:55:44;4.07;;;3.57;;
18580;SDS011;9420;50.876;7.012;2023-04-09T14:58:11;4.80;;;4.30;;